Crescent, Iowa
Current Conditions -  °F | °C
As of 10:52 PM on Wednesday 26 Nov 2014 (Local Time) from KOMA Reporting Station
Overcast Overcast  
Wind Chill: 10°   Ceiling: 1400
Heat Index: 23°   Visibility: 10mi
Dew Point: 17°   Wind: 16mph
Humidity: 78%   Direction: 350°N
Pressure: 30.45"   Gusts: NA
Location:  41.37°N, 95.86°W
Report Text: KOMA 270452Z 35014KT 10SM OVC014 M05/M08 A3045 RMK AO2 SLP322 T10501083
Loading
Personal Weather Stations






























Interactive Weather Map New forecast layout! Learn more

10-Day Weather Forecast

Advertisements
Track Severe Weather on mobile